Terminal Aerodrome Forecast
Issued by NWS Charleston, WV

Current Version | Previous Version | Text Only | Print | Product List | Glossary Off
Versions: 1 2 3 4 5 6 7 8 9 10 11 12 13 14 15 16 17 18 19 20

000
FTUS41 KRLX 011100
TAFPKB
TAF
KPKB 011121Z 0112/0212 33006KT 6SM BR BKN013 OVC018
     FM011500 34006KT P6SM OVC022
     FM011600 35004KT P6SM BKN035
     FM012000 33007KT P6SM SCT080
     FM020300 VRB03KT P6SM SCT250=

USA.gov is the U.S. government's official web portal to all federal, state and local government web resources and services.